Time;durP1;ratioP1;P1;durP2;ratioP2;P2;SDS_P1;SDS_P2;PMS_P1;PMS_P2;Temp;Humidity;BMP_temperature;BMP_pressure;BME280_temperature;BME280_humidity;BME280_pressure;Samples;Min_cycle;Max_cycle;Signal;HPM_P1;HPM_P2
2021/04/03 00:00:09;;;;;;;28.20;26.42;;;7.40;66.20;;;;;;5112332;28;20298;-78
2021/04/03 00:02:36;;;;;;;30.50;28.30;;;7.30;66.20;;;;;;5112323;28;20598;-78
2021/04/03 00:05:04;;;;;;;29.50;27.42;;;7.20;66.40;;;;;;5111872;28;20290;-78
2021/04/03 00:07:30;;;;;;;29.38;27.48;;;7.10;66.90;;;;;;5111934;28;20719;-78
2021/04/03 00:09:57;;;;;;;30.00;28.10;;;7.00;67.00;;;;;;5112199;28;20331;-78
2021/04/03 00:12:24;;;;;;;30.70;28.70;;;7.00;67.10;;;;;;5112492;28;20199;-78
2021/04/03 00:14:52;;;;;;;30.30;28.00;;;7.10;66.50;;;;;;5112108;28;20285;-79
2021/04/03 00:17:18;;;;;;;29.80;27.90;;;7.00;66.40;;;;;;5111846;28;20286;-78
2021/04/03 00:19:44;;;;;;;28.88;26.95;;;7.00;66.30;;;;;;5112333;28;20305;-78
2021/04/03 00:22:11;;;;;;;30.48;28.27;;;7.00;66.30;;;;;;5120806;28;20297;-78
2021/04/03 00:24:37;;;;;;;30.02;28.17;;;7.00;66.60;;;;;;5116016;28;20632;-78
2021/04/03 00:27:05;;;;;;;30.13;28.00;;;7.10;66.60;;;;;;5111595;28;20282;-78
2021/04/03 00:29:32;;;;;;;29.05;27.05;;;7.00;66.30;;;;;;5112031;28;20352;-78
2021/04/03 00:31:59;;;;;;;29.70;27.58;;;7.00;66.50;;;;;;5112311;28;20228;-78
2021/04/03 00:34:25;;;;;;;30.38;28.23;;;7.00;66.40;;;;;;5116085;28;20280;-78
2021/04/03 00:36:51;;;;;;;30.63;28.67;;;7.00;66.00;;;;;;5115396;28;20285;-78
2021/04/03 00:39:18;;;;;;;30.23;27.73;;;6.90;65.90;;;;;;5115593;28;20695;-78
2021/04/03 00:41:44;;;;;;;29.70;27.70;;;6.80;65.60;;;;;;5115758;28;20226;-78
2021/04/03 00:44:11;;;;;;;32.17;29.65;;;6.70;65.50;;;;;;5115620;28;20249;-78
2021/04/03 00:46:38;;;;;;;29.88;27.88;;;6.70;65.40;;;;;;5115151;28;20237;-78
2021/04/03 00:49:06;;;;;;;29.42;27.63;;;6.70;65.40;;;;;;5115611;28;20277;-78
2021/04/03 00:51:33;;;;;;;31.40;28.88;;;6.80;65.00;;;;;;5115539;28;20282;-78
2021/04/03 00:54:00;;;;;;;31.50;28.65;;;6.60;65.30;;;;;;5115563;28;20752;-78
2021/04/03 00:56:27;;;;;;;30.23;27.92;;;6.70;65.30;;;;;;5114924;28;20198;-78
2021/04/03 00:58:54;;;;;;;28.48;26.80;;;6.80;64.90;;;;;;5115511;28;20230;-78
2021/04/03 01:01:21;;;;;;;29.83;27.92;;;6.90;64.30;;;;;;5115282;28;20251;-78
2021/04/03 01:03:48;;;;;;;28.70;26.85;;;7.00;64.20;;;;;;5115082;28;20289;-79
2021/04/03 01:06:14;;;;;;;29.67;27.63;;;6.90;64.10;;;;;;5115056;28;20195;-78
2021/04/03 01:08:41;;;;;;;29.10;27.38;;;6.70;64.50;;;;;;5115257;28;20198;-78
2021/04/03 01:11:08;;;;;;;30.50;28.35;;;6.70;64.60;;;;;;5115417;28;20219;-79
2021/04/03 01:14:02;;;;;;;29.85;27.85;;;6.60;64.40;;;;;;5115301;28;20298;-78
2021/04/03 01:16:34;;;;;;;29.98;27.58;;;6.60;64.70;;;;;;5110717;28;20194;-79
2021/04/03 01:19:21;;;;;;;29.33;27.35;;;6.50;64.90;;;;;;5115282;28;20199;-78
2021/04/03 01:22:09;;;;;;;29.48;27.35;;;6.60;64.80;;;;;;5115085;28;20221;-78
2021/04/03 01:24:48;;;;;;;30.45;27.35;;;6.50;64.60;;;;;;5115323;28;20290;-79
2021/04/03 01:27:19;;;;;;;29.33;27.23;;;6.50;64.70;;;;;;5114828;28;20549;-78
2021/04/03 01:30:03;;;;;;;29.80;27.70;;;6.50;64.70;;;;;;5114802;28;20699;-79
2021/04/03 01:32:38;;;;;;;29.70;27.35;;;6.50;64.50;;;;;;5115075;28;20248;-78
2021/04/03 01:35:07;;;;;;;30.63;28.42;;;6.50;64.40;;;;;;5114891;28;20657;-78
2021/04/03 01:37:42;;;;;;;30.05;28.15;;;6.50;64.70;;;;;;5114319;28;20191;-78
2021/04/03 01:40:10;;;;;;;30.20;28.10;;;6.50;64.70;;;;;;5114581;28;20217;-78
2021/04/03 01:42:39;;;;;;;29.02;27.08;;;6.40;64.70;;;;;;5114760;28;20301;-78
2021/04/03 01:45:08;;;;;;;28.77;26.88;;;6.50;64.60;;;;;;5113734;28;20198;-78
2021/04/03 01:47:39;;;;;;;29.63;27.55;;;6.60;64.30;;;;;;5114138;28;20198;-78
2021/04/03 01:50:08;;;;;;;30.48;27.95;;;6.60;64.20;;;;;;5114624;28;20691;-78
2021/04/03 01:52:35;;;;;;;28.92;27.10;;;6.60;64.80;;;;;;5114524;28;20277;-78
2021/04/03 01:55:06;;;;;;;27.05;25.35;;;6.50;64.40;;;;;;5114257;28;20224;-78
2021/04/03 01:57:34;;;;;;;29.23;27.33;;;6.50;64.90;;;;;;5113861;28;20199;-81
2021/04/03 02:00:04;;;;;;;29.20;27.10;;;6.50;64.20;;;;;;5114306;28;20214;-79
2021/04/03 02:02:34;;;;;;;29.30;26.90;;;6.50;64.40;;;;;;5114113;28;20222;-78
2021/04/03 02:05:00;;;;;;;29.45;27.35;;;6.60;64.00;;;;;;5113666;28;20211;-78
2021/04/03 02:07:28;;;;;;;29.45;27.30;;;6.60;63.80;;;;;;5113543;28;20652;-78
2021/04/03 02:09:55;;;;;;;28.10;26.17;;;6.70;63.70;;;;;;5113795;28;20691;-78
2021/04/03 02:12:23;;;;;;;27.52;25.58;;;6.70;64.00;;;;;;5114177;28;20197;-78
2021/04/03 02:14:51;;;;;;;29.20;26.83;;;6.50;65.10;;;;;;5114044;28;20293;-78
2021/04/03 02:17:19;;;;;;;30.98;28.77;;;6.60;65.40;;;;;;5113646;28;20199;-79
2021/04/03 02:19:47;;;;;;;30.00;27.80;;;6.50;65.50;;;;;;5122214;28;20214;-79
2021/04/03 02:22:17;;;;;;;30.55;28.65;;;6.50;65.70;;;;;;5117196;28;20246;-78
2021/04/03 02:24:44;;;;;;;29.17;27.02;;;6.30;66.10;;;;;;5113963;28;20210;-78
2021/04/03 02:27:11;;;;;;;28.88;27.17;;;6.30;66.50;;;;;;5113080;28;20199;-78
2021/04/03 02:29:38;;;;;;;29.85;27.50;;;6.20;66.80;;;;;;5113667;28;20223;-78
2021/04/03 02:32:07;;;;;;;29.13;27.20;;;6.20;66.90;;;;;;5113708;28;20195;-78
2021/04/03 02:34:33;;;;;;;29.70;27.65;;;6.20;67.10;;;;;;5113666;28;20202;-78
2021/04/03 02:37:00;;;;;;;28.70;26.85;;;6.30;66.80;;;;;;5113073;28;20195;-78
2021/04/03 02:39:27;;;;;;;30.60;28.35;;;6.30;66.70;;;;;;5113406;28;20306;-78
2021/04/03 02:41:58;;;;;;;30.27;28.17;;;6.40;66.30;;;;;;5113491;28;20217;-78
2021/04/03 02:44:30;;;;;;;29.50;27.65;;;6.50;66.00;;;;;;5113360;28;20638;-78
2021/04/03 02:47:02;;;;;;;30.42;28.27;;;6.40;65.80;;;;;;5112843;28;20199;-78
2021/04/03 02:49:35;;;;;;;28.90;26.90;;;6.30;66.40;;;;;;5113227;28;20301;-78
2021/04/03 02:52:05;;;;;;;27.65;25.85;;;6.30;66.30;;;;;;5113444;28;20194;-78
2021/04/03 02:54:33;;;;;;;28.80;26.90;;;6.40;66.00;;;;;;5113498;28;20195;-78
2021/04/03 02:57:01;;;;;;;27.77;25.60;;;6.40;66.00;;;;;;5112513;28;20689;-78
2021/04/03 02:59:30;;;;;;;27.98;26.17;;;6.40;65.60;;;;;;5114411;28;20263;-78
2021/04/03 03:01:58;;;;;;;28.70;26.65;;;6.40;65.50;;;;;;5113111;28;20218;-78
2021/04/03 03:04:26;;;;;;;27.75;25.95;;;6.40;65.70;;;;;;5112553;28;20282;-78
2021/04/03 03:06:54;;;;;;;27.23;25.35;;;6.30;65.60;;;;;;5112642;28;20556;-78
2021/04/03 03:09:22;;;;;;;27.23;25.45;;;6.30;65.80;;;;;;5112783;28;20218;-78
2021/04/03 03:11:53;;;;;;;27.75;25.85;;;6.30;65.60;;;;;;5112961;28;20248;-78
2021/04/03 03:14:22;;;;;;;28.00;25.60;;;6.30;65.50;;;;;;5112754;28;20210;-78
2021/04/03 03:16:51;;;;;;;27.10;25.42;;;6.30;65.00;;;;;;5112444;27;20201;-79
2021/04/03 03:19:19;;;;;;;27.00;25.10;;;6.20;65.20;;;;;;5112850;28;20218;-78
2021/04/03 03:21:46;;;;;;;25.90;24.30;;;6.10;65.60;;;;;;5112838;28;20371;-78
2021/04/03 03:24:13;;;;;;;28.60;26.75;;;6.10;65.20;;;;;;5112864;28;20199;-78
2021/04/03 03:26:41;;;;;;;27.00;24.92;;;6.00;65.70;;;;;;5111992;28;20288;-78
2021/04/03 03:29:10;;;;;;;27.73;25.60;;;6.20;65.20;;;;;;5112680;28;20223;-78
2021/04/03 03:31:37;;;;;;;29.77;27.35;;;6.10;65.50;;;;;;5112969;28;20196;-78
2021/04/03 03:34:04;;;;;;;27.30;24.88;;;6.10;65.70;;;;;;5112654;28;20199;-78
2021/04/03 03:36:31;;;;;;;27.05;25.35;;;6.00;66.20;;;;;;5112002;28;20201;-78
2021/04/03 03:38:58;;;;;;;26.48;24.88;;;5.80;66.40;;;;;;5112485;28;20632;-78
2021/04/03 03:41:26;;;;;;;27.20;25.38;;;5.80;66.60;;;;;;5112466;28;20622;-78
2021/04/03 03:43:53;;;;;;;27.10;25.08;;;5.70;67.00;;;;;;5112737;28;20205;-78
2021/04/03 03:46:20;;;;;;;25.90;24.17;;;5.80;66.80;;;;;;5112118;28;20199;-78
2021/04/03 03:48:46;;;;;;;27.35;25.75;;;5.80;66.50;;;;;;5112761;28;20202;-78
2021/04/03 03:51:13;;;;;;;27.70;25.80;;;5.90;66.20;;;;;;5112447;28;20707;-79
2021/04/03 03:53:40;;;;;;;28.00;26.15;;;5.80;66.20;;;;;;5112618;28;20240;-78
2021/04/03 03:56:07;;;;;;;27.10;25.40;;;5.90;66.20;;;;;;5111925;28;20234;-78
2021/04/03 03:58:33;;;;;;;26.50;24.85;;;6.00;65.90;;;;;;5112601;28;20198;-78
2021/04/03 04:01:01;;;;;;;27.55;25.75;;;5.90;66.10;;;;;;5112337;28;20640;-78
2021/04/03 04:03:27;;;;;;;27.17;25.45;;;5.90;66.20;;;;;;5112008;28;20316;-78
2021/04/03 04:05:54;;;;;;;26.80;25.10;;;5.80;66.60;;;;;;5112056;28;20200;-78
2021/04/03 04:08:20;;;;;;;26.90;25.20;;;5.80;66.80;;;;;;5114634;28;20608;-79
2021/04/03 04:10:47;;;;;;;27.15;25.35;;;5.90;66.70;;;;;;5116084;28;20307;-78
2021/04/03 04:13:13;;;;;;;28.70;26.55;;;5.90;66.90;;;;;;5116584;28;20732;-78
2021/04/03 04:15:40;;;;;;;28.20;26.15;;;6.00;66.80;;;;;;5118027;28;20624;-78
2021/04/03 04:18:07;;;;;;;27.95;25.80;;;6.00;66.90;;;;;;5124855;28;20258;-78
2021/04/03 04:20:34;;;;;;;26.85;24.98;;;5.90;67.20;;;;;;5119999;28;20583;-78
2021/04/03 04:23:00;;;;;;;25.20;23.48;;;6.00;67.00;;;;;;5116084;27;20272;-78
2021/04/03 04:25:27;;;;;;;27.45;25.55;;;6.00;67.00;;;;;;5115817;28;20230;-79
2021/04/03 04:27:53;;;;;;;27.58;25.88;;;5.90;67.50;;;;;;5116114;28;20230;-78
2021/04/03 04:30:21;;;;;;;27.67;25.95;;;5.90;67.60;;;;;;5116118;28;20305;-78
2021/04/03 04:32:48;;;;;;;27.92;26.08;;;5.90;68.00;;;;;;5115932;28;20626;-78
2021/04/03 04:35:16;;;;;;;28.15;25.95;;;5.90;67.80;;;;;;5116077;28;20229;-78
2021/04/03 04:37:43;;;;;;;28.70;26.48;;;5.90;67.80;;;;;;5115555;28;20285;-77
2021/04/03 04:40:13;;;;;;;25.90;24.15;;;5.90;67.90;;;;;;5115917;28;20221;-78
2021/04/03 04:42:40;;;;;;;27.58;25.80;;;6.00;67.60;;;;;;5115762;28;20304;-78
2021/04/03 04:45:09;;;;;;;29.20;27.20;;;6.00;67.90;;;;;;5115818;28;20191;-78
2021/04/03 04:47:35;;;;;;;28.13;26.13;;;6.00;67.90;;;;;;5115109;28;20674;-77
2021/04/03 04:50:02;;;;;;;83.60;40.33;;;6.00;67.80;;;;;;5115772;28;20305;-78
2021/04/03 04:52:30;;;;;;;27.88;25.95;;;5.90;68.10;;;;;;5115930;28;20278;-78
2021/04/03 04:54:57;;;;;;;25.95;24.35;;;6.00;67.90;;;;;;5115702;28;20198;-78
2021/04/03 04:57:23;;;;;;;28.13;26.38;;;6.00;68.00;;;;;;5115177;28;20277;-78
2021/04/03 04:59:50;;;;;;;27.08;25.40;;;5.90;68.30;;;;;;5116244;28;20256;-78
2021/04/03 05:02:16;;;;;;;27.40;25.45;;;5.90;68.40;;;;;;5115688;28;20218;-77
2021/04/03 05:04:42;;;;;;;26.70;25.02;;;5.90;68.60;;;;;;5115456;28;20226;-78
2021/04/03 05:07:09;;;;;;;26.85;25.17;;;5.90;68.30;;;;;;5115320;28;20200;-78
2021/04/03 05:09:36;;;;;;;28.70;26.15;;;6.00;68.20;;;;;;5116102;28;20249;-78
2021/04/03 05:12:03;;;;;;;27.05;25.05;;;6.00;68.10;;;;;;5116082;28;20273;-78
2021/04/03 05:14:30;;;;;;;26.63;24.83;;;6.20;67.70;;;;;;5122424;28;20203;-78
2021/04/03 05:16:56;;;;;;;26.85;25.08;;;6.20;67.60;;;;;;5125201;28;20211;-78
2021/04/03 05:19:23;;;;;;;26.70;24.90;;;6.10;67.60;;;;;;5116386;28;20229;-78
2021/04/03 05:21:49;;;;;;;27.48;25.30;;;6.20;67.50;;;;;;5115359;28;20290;-78
2021/04/03 05:24:15;;;;;;;27.73;25.65;;;6.20;67.20;;;;;;5115326;28;20195;-78
2021/04/03 05:26:43;;;;;;;26.80;24.85;;;6.30;67.20;;;;;;5114524;28;20229;-78
2021/04/03 05:29:09;;;;;;;26.42;24.67;;;6.20;67.20;;;;;;5114937;28;20202;-78
2021/04/03 05:31:36;;;;;;;26.70;25.00;;;6.30;67.30;;;;;;5114976;28;20199;-79
2021/04/03 05:34:02;;;;;;;25.88;24.27;;;6.40;67.20;;;;;;5115131;28;20194;-78
2021/04/03 05:36:28;;;;;;;26.15;24.10;;;6.50;66.50;;;;;;5114290;28;20194;-78
2021/04/03 05:38:55;;;;;;;26.80;24.98;;;6.50;66.10;;;;;;5114844;28;20198;-78
2021/04/03 05:41:21;;;;;;;28.73;26.52;;;6.60;66.10;;;;;;5114795;28;20195;-78
2021/04/03 05:43:51;;;;;;;26.60;25.10;;;6.60;65.90;;;;;;5114818;28;20297;-78
2021/04/03 05:46:19;;;;;;;26.20;24.40;;;6.50;66.00;;;;;;5114223;28;20198;-79
2021/04/03 05:48:47;;;;;;;28.30;26.17;;;6.70;65.60;;;;;;5114638;28;20232;-78
2021/04/03 05:51:15;;;;;;;27.02;25.08;;;6.70;65.40;;;;;;5114758;28;20214;-78
2021/04/03 05:53:41;;;;;;;25.65;24.05;;;6.80;65.30;;;;;;5114572;28;20544;-78
2021/04/03 05:56:08;;;;;;;25.80;24.05;;;7.00;64.50;;;;;;5114123;28;20292;-78
2021/04/03 05:58:37;;;;;;;27.25;25.35;;;7.00;64.10;;;;;;5114228;28;20281;-79
2021/04/03 06:01:06;;;;;;;26.48;24.85;;;6.90;64.40;;;;;;5114216;28;20214;-78
2021/04/03 06:03:33;;;;;;;26.17;24.42;;;7.00;64.30;;;;;;5113819;28;20215;-78
2021/04/03 06:06:00;;;;;;;26.13;24.35;;;7.10;63.90;;;;;;5114006;28;20205;-78
2021/04/03 06:08:30;;;;;;;26.05;24.35;;;7.10;64.00;;;;;;5114170;28;20222;-78
2021/04/03 06:11:13;;;;;;;26.55;24.70;;;7.10;64.10;;;;;;5113686;28;20222;-78
2021/04/03 06:13:41;;;;;;;26.90;25.20;;;7.20;64.30;;;;;;5118566;28;20198;-78
2021/04/03 06:16:28;;;;;;;26.25;24.38;;;7.10;64.20;;;;;;5121341;28;20776;-78
2021/04/03 06:19:12;;;;;;;26.77;25.13;;;6.80;65.30;;;;;;5113943;28;20199;-78
2021/04/03 06:21:39;;;;;;;26.65;24.70;;;6.90;64.70;;;;;;5113726;28;20230;-78
2021/04/03 06:24:16;;;;;;;26.15;24.15;;;6.70;65.30;;;;;;5113893;28;20191;-78
2021/04/03 06:27:02;;;;;;;27.58;25.67;;;6.40;66.50;;;;;;5113193;28;20203;-78
2021/04/03 06:29:39;;;;;;;25.75;24.23;;;6.40;66.70;;;;;;5113601;28;20214;-78
2021/04/03 06:32:09;;;;;;;25.95;24.15;;;6.40;67.10;;;;;;5113334;28;20198;-78
2021/04/03 06:34:38;;;;;;;26.27;24.27;;;6.40;66.70;;;;;;5113689;28;20205;-78
2021/04/03 06:37:07;;;;;;;25.10;23.65;;;6.40;66.70;;;;;;5113279;27;20289;-78
2021/04/03 06:39:56;;;;;;;26.58;24.67;;;6.40;67.20;;;;;;5113712;28;20218;-78
2021/04/03 06:42:40;;;;;;;26.65;24.55;;;6.40;66.90;;;;;;5114240;28;20214;-78
2021/04/03 06:45:21;;;;;;;26.25;24.27;;;6.40;67.00;;;;;;5113758;28;20194;-78
2021/04/03 06:47:49;;;;;;;25.30;23.83;;;6.30;67.20;;;;;;5113183;28;20191;-77
2021/04/03 06:50:17;;;;;;;25.67;24.05;;;6.30;67.50;;;;;;5113210;28;20723;-77
2021/04/03 06:52:44;;;;;;;26.17;24.50;;;6.30;67.40;;;;;;5113243;28;20191;-77
2021/04/03 06:55:12;;;;;;;27.30;25.70;;;6.40;67.30;;;;;;5113332;28;20286;-78
2021/04/03 06:57:42;;;;;;;26.13;24.42;;;6.40;67.00;;;;;;5112801;28;20281;-77
2021/04/03 07:00:09;;;;;;;24.92;23.42;;;6.60;66.90;;;;;;5113173;28;20301;-77
2021/04/03 07:02:44;;;;;;;25.95;24.33;;;6.80;67.30;;;;;;5113026;28;20222;-77
2021/04/03 07:05:13;;;;;;;25.33;23.65;;;7.00;66.20;;;;;;5112542;28;20199;-78
2021/04/03 07:07:41;;;;;;;26.75;25.13;;;7.30;65.00;;;;;;5112620;28;20590;-78
2021/04/03 07:10:09;;;;;;;26.65;24.63;;;7.50;64.40;;;;;;5113055;28;20311;-77
2021/04/03 07:12:36;;;;;;;26.95;24.90;;;7.60;63.70;;;;;;5113020;28;20235;-78
2021/04/03 07:15:04;;;;;;;26.55;25.02;;;7.80;63.30;;;;;;5112959;28;20209;-80
2021/04/03 07:17:31;;;;;;;25.70;24.20;;;7.60;63.30;;;;;;5112615;28;20278;-77
2021/04/03 07:19:58;;;;;;;24.65;23.10;;;7.50;63.20;;;;;;5112941;28;20226;-77
2021/04/03 07:22:25;;;;;;;25.40;23.92;;;7.20;64.30;;;;;;5113249;28;20226;-78
2021/04/03 07:24:53;;;;;;;26.10;24.55;;;7.30;64.40;;;;;;5113297;28;20199;-77
2021/04/03 07:27:21;;;;;;;25.35;23.85;;;7.20;64.60;;;;;;5112463;28;20684;-77
2021/04/03 07:29:49;;;;;;;24.73;23.33;;;7.20;64.70;;;;;;5112893;28;20307;-77
2021/04/03 07:32:32;;;;;;;27.20;25.40;;;7.40;64.30;;;;;;5113707;28;20194;-78
2021/04/03 07:35:00;;;;;;;26.75;25.15;;;7.40;63.80;;;;;;5113206;28;20286;-77
2021/04/03 07:37:34;;;;;;;26.67;24.98;;;7.60;63.70;;;;;;5112347;28;20654;-77
2021/04/03 07:40:02;;;;;;;26.50;24.65;;;7.90;62.70;;;;;;5112877;28;20622;-77
2021/04/03 07:42:34;;;;;;;25.13;23.50;;;7.90;62.00;;;;;;5113284;28;20221;-78
2021/04/03 07:45:01;;;;;;;25.60;23.85;;;8.00;61.60;;;;;;5117071;28;20714;-78
2021/04/03 07:47:28;;;;;;;25.00;23.35;;;8.00;62.20;;;;;;5116431;28;20270;-78
2021/04/03 07:49:54;;;;;;;25.75;24.05;;;7.90;62.10;;;;;;5116801;28;20230;-78
2021/04/03 07:52:52;;;;;;;25.98;24.05;;;8.00;62.20;;;;;;5116851;28;20228;-78
2021/04/03 07:55:33;;;;;;;29.17;27.38;;;8.20;61.40;;;;;;5116665;28;20248;-78
2021/04/03 07:58:24;;;;;;;26.85;24.90;;;8.30;60.50;;;;;;5116641;28;20201;-78
2021/04/03 08:00:52;;;;;;;26.17;24.30;;;8.10;61.00;;;;;;5116712;27;20247;-78
2021/04/03 08:03:22;;;;;;;27.30;25.70;;;8.00;61.00;;;;;;5116791;28;20256;-79
2021/04/03 08:05:50;;;;;;;25.95;24.15;;;7.50;62.70;;;;;;5115937;28;20233;-77
2021/04/03 08:08:20;;;;;;;24.92;23.52;;;7.30;63.40;;;;;;5117255;28;20287;-78
2021/04/03 08:10:47;;;;;;;25.20;23.45;;;7.30;64.00;;;;;;5121022;28;20212;-77
2021/04/03 08:13:17;;;;;;;25.75;24.15;;;7.40;62.60;;;;;;5128408;28;20328;-78
2021/04/03 08:15:48;;;;;;;26.63;24.85;;;7.10;63.20;;;;;;5116510;28;20220;-77
2021/04/03 08:18:15;;;;;;;27.17;25.38;;;7.10;63.70;;;;;;5116472;28;20578;-78
2021/04/03 08:20:50;;;;;;;25.80;23.92;;;7.00;64.10;;;;;;5116249;28;20223;-78
2021/04/03 08:23:29;;;;;;;24.67;23.05;;;7.10;63.00;;;;;;5116333;28;20228;-78
2021/04/03 08:25:56;;;;;;;25.92;24.33;;;7.20;62.50;;;;;;5115596;28;20201;-77
2021/04/03 08:28:23;;;;;;;26.27;24.50;;;7.10;62.50;;;;;;5116337;28;20255;-78
2021/04/03 08:30:49;;;;;;;24.10;22.80;;;7.20;63.00;;;;;;5116344;28;20666;-77
2021/04/03 08:33:18;;;;;;;26.00;24.10;;;7.40;62.10;;;;;;5116428;28;20197;-78
2021/04/03 08:35:46;;;;;;;24.70;23.08;;;7.50;62.40;;;;;;5115935;28;20696;-77
2021/04/03 08:38:15;;;;;;;25.17;23.67;;;7.50;61.90;;;;;;5126172;28;20211;-77
2021/04/03 08:40:43;;;;;;;24.40;22.92;;;7.70;62.10;;;;;;5133269;28;20292;-78
2021/04/03 08:43:16;;;;;;;25.15;23.33;;;7.80;62.20;;;;;;5116254;28;20223;-77
2021/04/03 08:45:43;;;;;;;24.45;23.05;;;8.00;61.40;;;;;;5115594;28;20303;-78
2021/04/03 08:48:10;;;;;;;25.98;23.98;;;8.10;60.20;;;;;;5115689;28;20194;-77
2021/04/03 08:50:38;;;;;;;27.30;25.25;;;8.00;60.70;;;;;;5115719;28;20560;-78
2021/04/03 08:53:05;;;;;;;24.00;22.58;;;8.00;60.80;;;;;;5115755;28;20197;-77
2021/04/03 08:55:32;;;;;;;24.63;22.70;;;8.00;60.90;;;;;;5115124;28;20608;-78
2021/04/03 08:58:00;;;;;;;25.17;23.48;;;7.90;61.00;;;;;;5115296;28;20215;-78
2021/04/03 09:00:28;;;;;;;24.52;22.88;;;8.00;61.10;;;;;;5115851;28;20305;-77
2021/04/03 09:02:56;;;;;;;25.73;23.95;;;8.20;60.30;;;;;;5115426;28;20221;-78
2021/04/03 09:05:22;;;;;;;25.10;23.05;;;8.30;60.20;;;;;;5114683;28;20595;-78
2021/04/03 09:07:49;;;;;;;24.70;22.45;;;8.40;59.80;;;;;;5115075;28;20541;-77
2021/04/03 09:10:18;;;;;;;25.05;23.33;;;8.50;59.10;;;;;;5114760;28;20297;-78
2021/04/03 09:12:45;;;;;;;24.50;22.65;;;8.70;58.50;;;;;;5115217;28;20202;-78
2021/04/03 09:15:15;;;;;;;24.00;22.13;;;9.00;58.10;;;;;;5115316;28;20222;-77
2021/04/03 09:17:50;;;;;;;37.50;28.58;;;9.20;57.30;;;;;;5114789;28;20194;-78
2021/04/03 09:20:23;;;;;;;24.40;22.88;;;9.30;56.60;;;;;;5114989;28;21000;-78
2021/04/03 09:22:53;;;;;;;25.75;24.10;;;9.30;56.50;;;;;;5115129;28;20297;-78
2021/04/03 09:25:21;;;;;;;24.83;23.27;;;9.40;55.70;;;;;;5114975;28;20237;-78
2021/04/03 09:27:58;;;;;;;24.67;23.27;;;9.10;56.20;;;;;;5114840;28;20234;-78
2021/04/03 09:30:35;;;;;;;24.98;23.27;;;9.00;56.50;;;;;;5114791;28;20218;-78
2021/04/03 09:33:17;;;;;;;25.80;24.20;;;9.00;56.50;;;;;;5114751;28;20195;-78
2021/04/03 09:35:43;;;;;;;25.75;23.75;;;8.90;57.20;;;;;;5114435;28;20194;-79
2021/04/03 09:38:10;;;;;;;23.92;22.30;;;9.00;56.20;;;;;;5115154;28;20209;-78
2021/04/03 09:40:37;;;;;;;24.45;22.95;;;8.90;56.70;;;;;;5115139;28;20703;-78
2021/04/03 09:43:04;;;;;;;25.33;23.40;;;9.00;56.90;;;;;;5115205;28;20215;-78
2021/04/03 09:45:30;;;;;;;24.17;22.88;;;9.20;56.10;;;;;;5114404;28;20739;-77
2021/04/03 09:47:57;;;;;;;26.58;25.17;;;9.20;55.50;;;;;;5115594;28;20849;-78
2021/04/03 09:50:25;;;;;;;25.13;23.60;;;9.50;54.90;;;;;;5115610;28;20306;-78
2021/04/03 09:52:52;;;;;;;25.70;23.55;;;9.30;55.40;;;;;;5115055;28;20675;-78
2021/04/03 09:55:19;;;;;;;24.50;23.00;;;9.20;56.30;;;;;;5114670;28;20200;-80
2021/04/03 09:57:45;;;;;;;26.92;25.23;;;9.30;56.50;;;;;;5114323;28;20195;-78
2021/04/03 10:00:13;;;;;;;24.13;22.67;;;9.50;55.50;;;;;;5114277;28;20301;-78
2021/04/03 10:02:39;;;;;;;24.98;23.58;;;9.60;54.30;;;;;;5114455;28;20226;-78
2021/04/03 10:05:07;;;;;;;25.75;23.65;;;9.50;54.60;;;;;;5113050;27;20236;-77
2021/04/03 10:07:34;;;;;;;25.70;24.02;;;9.60;53.80;;;;;;5114325;28;20437;-78
2021/04/03 10:10:01;;;;;;;25.40;23.75;;;9.60;52.80;;;;;;5124221;28;20294;-78
2021/04/03 10:12:27;;;;;;;27.52;25.05;;;9.60;53.20;;;;;;5117798;28;20210;-78
2021/04/03 10:14:54;;;;;;;27.27;25.40;;;9.70;53.30;;;;;;5114080;28;20342;-78
2021/04/03 10:17:20;;;;;;;24.60;23.00;;;9.80;53.70;;;;;;5113526;28;20202;-78
2021/04/03 10:19:47;;;;;;;25.90;23.70;;;10.10;53.00;;;;;;5113844;28;20225;-78
2021/04/03 10:22:13;;;;;;;24.83;23.08;;;10.10;52.80;;;;;;5114037;28;20219;-78
2021/04/03 10:24:40;;;;;;;24.57;22.93;;;10.30;52.50;;;;;;5114203;28;20198;-78
2021/04/03 10:27:08;;;;;;;24.30;22.90;;;10.60;52.30;;;;;;5113347;28;20528;-78
2021/04/03 10:29:34;;;;;;;24.70;23.20;;;10.70;51.90;;;;;;5113959;28;20497;-77
2021/04/03 10:32:01;;;;;;;24.00;22.50;;;10.70;51.10;;;;;;5113947;28;20444;-78
2021/04/03 10:34:27;;;;;;;26.03;24.43;;;10.50;51.40;;;;;;5114071;28;20452;-78
2021/04/03 10:36:53;;;;;;;23.93;22.53;;;10.90;50.90;;;;;;5113194;28;20452;-77
2021/04/03 10:39:20;;;;;;;27.90;25.10;;;11.20;50.60;;;;;;5113670;28;20528;-78
2021/04/03 10:41:47;;;;;;;24.77;22.87;;;11.20;50.80;;;;;;5114609;28;20821;-78
2021/04/03 10:44:14;;;;;;;25.07;23.47;;;11.20;51.10;;;;;;5115002;28;20829;-78
2021/04/03 10:46:40;;;;;;;25.83;24.00;;;11.20;50.80;;;;;;5113650;28;20539;-77
2021/04/03 10:49:06;;;;;;;25.23;23.43;;;11.50;50.40;;;;;;5113355;28;20448;-77
2021/04/03 10:51:33;;;;;;;24.43;23.00;;;11.60;50.00;;;;;;5113365;28;20444;-78
2021/04/03 10:53:59;;;;;;;24.87;23.17;;;11.20;50.20;;;;;;5113364;27;20949;-78
2021/04/03 10:56:25;;;;;;;25.27;23.47;;;10.80;51.10;;;;;;5112827;28;20478;-78
2021/04/03 10:58:53;;;;;;;23.90;22.40;;;10.80;51.40;;;;;;5113211;28;20543;-78
2021/04/03 11:01:20;;;;;;;25.10;23.40;;;11.20;50.20;;;;;;5113213;28;20957;-78
2021/04/03 11:03:46;;;;;;;25.67;24.07;;;11.20;50.00;;;;;;5112811;28;20563;-78
2021/04/03 11:06:12;;;;;;;24.13;22.70;;;11.30;50.10;;;;;;5112944;28;20452;-78
2021/04/03 11:08:39;;;;;;;24.33;22.83;;;11.50;49.70;;;;;;5113399;28;20448;-78
2021/04/03 11:11:06;;;;;;;25.00;23.47;;;11.80;48.80;;;;;;5112745;28;20576;-78
2021/04/03 11:13:32;;;;;;;26.63;24.10;;;11.80;48.60;;;;;;5113297;28;20467;-78
2021/04/03 11:16:00;;;;;;;25.17;23.57;;;11.60;49.20;;;;;;5113247;28;20513;-78
2021/04/03 11:18:26;;;;;;;24.77;23.27;;;11.90;48.70;;;;;;5114312;28;20484;-79
2021/04/03 11:20:52;;;;;;;36.10;26.40;;;11.60;48.90;;;;;;5113290;28;20511;-78
2021/04/03 11:23:19;;;;;;;25.10;23.40;;;11.40;49.30;;;;;;5113051;28;20468;-78
2021/04/03 11:25:46;;;;;;;24.90;23.40;;;11.40;49.10;;;;;;5112261;28;20489;-78
2021/04/03 11:28:12;;;;;;;26.00;24.20;;;11.30;48.90;;;;;;5113534;28;20539;-78
2021/04/03 11:30:39;;;;;;;24.75;23.25;;;11.10;49.10;;;;;;5113882;28;20609;-78
2021/04/03 11:33:06;;;;;;;25.63;23.95;;;10.80;49.70;;;;;;5113075;28;20647;-78
2021/04/03 11:35:35;;;;;;;24.48;22.88;;;10.40;50.10;;;;;;5112196;28;20296;-79
2021/04/03 11:38:02;;;;;;;24.20;22.90;;;10.40;50.40;;;;;;5112907;28;20197;-79
2021/04/03 11:40:29;;;;;;;24.15;22.80;;;10.60;50.40;;;;;;5112800;28;20939;-78
2021/04/03 11:42:55;;;;;;;24.75;23.15;;;10.70;49.60;;;;;;5112969;28;20586;-78
2021/04/03 11:45:23;;;;;;;25.20;23.75;;;10.90;48.60;;;;;;5113164;28;20198;-78
2021/04/03 11:47:50;;;;;;;25.50;23.85;;;10.90;48.90;;;;;;5112820;28;20529;-78
2021/04/03 11:50:18;;;;;;;31.67;28.70;;;10.90;49.10;;;;;;5113138;28;20280;-78
2021/04/03 11:52:44;;;;;;;23.90;22.60;;;11.00;48.30;;;;;;5112876;28;20447;-77
2021/04/03 11:55:14;;;;;;;25.77;23.97;;;11.40;47.40;;;;;;5112824;28;20458;-78
2021/04/03 11:57:40;;;;;;;25.63;23.97;;;11.60;47.40;;;;;;5112245;28;20809;-79
2021/04/03 12:00:08;;;;;;;25.93;24.53;;;11.70;47.20;;;;;;5112877;28;20472;-78
2021/04/03 12:02:35;;;;;;;25.10;23.60;;;12.00;46.60;;;;;;5112724;28;20476;-78
2021/04/03 12:05:02;;;;;;;26.87;25.17;;;12.00;46.60;;;;;;5112028;28;20463;-78
2021/04/03 12:07:29;;;;;;;25.40;23.77;;;12.00;47.10;;;;;;5121323;28;20537;-78
2021/04/03 12:09:55;;;;;;;25.60;23.90;;;11.90;47.50;;;;;;5114183;28;20483;-77
2021/04/03 12:12:22;;;;;;;25.83;24.00;;;11.60;48.30;;;;;;5112395;28;20850;-78
2021/04/03 12:14:48;;;;;;;26.60;24.77;;;11.30;48.30;;;;;;5112292;28;20583;-78
2021/04/03 12:17:14;;;;;;;25.60;24.05;;;11.50;47.60;;;;;;5111992;28;20536;-78
2021/04/03 12:19:41;;;;;;;26.93;25.33;;;11.70;47.30;;;;;;5112071;28;20246;-78
2021/04/03 12:22:07;;;;;;;24.67;22.87;;;11.80;47.30;;;;;;5112172;28;21012;-78
2021/04/03 12:24:34;;;;;;;27.43;25.93;;;12.00;44.60;;;;;;5112166;28;20551;-78
2021/04/03 12:27:01;;;;;;;25.03;23.43;;;11.70;44.80;;;;;;5111791;28;20444;-78
2021/04/03 12:29:27;;;;;;;25.63;23.93;;;11.50;45.20;;;;;;5114606;28;20539;-78
2021/04/03 12:31:54;;;;;;;25.00;23.60;;;11.30;45.90;;;;;;5116539;28;20486;-78
2021/04/03 12:34:20;;;;;;;25.30;23.90;;;11.30;46.70;;;;;;5116212;28;20584;-78
2021/04/03 12:36:47;;;;;;;26.77;24.80;;;11.70;46.10;;;;;;5115589;28;20451;-78
2021/04/03 12:39:13;;;;;;;26.47;24.07;;;12.00;46.00;;;;;;5116164;28;20468;-78
2021/04/03 12:41:40;;;;;;;25.63;24.03;;;11.90;46.40;;;;;;5116181;28;20953;-78